Time;durP1;ratioP1;P1;durP2;ratioP2;P2;SDS_P1;SDS_P2;PMS_P1;PMS_P2;Temp;Humidity;BMP_temperature;BMP_pressure;BME280_temperature;BME280_humidity;BME280_pressure;Samples;Min_cycle;Max_cycle;Signal;HPM_P1;HPM_P2
2022/01/10 00:00:29;;;;;;;2.05;1.00;;;27.70;46.50;;;;;;5065253;28;20277;-45
2022/01/10 00:03:01;;;;;;;1.10;1.00;;;27.70;46.50;;;;;;5067831;28;20322;-40
2022/01/10 00:05:31;;;;;;;1.08;0.98;;;27.70;46.60;;;;;;5051060;28;20219;-41
2022/01/10 00:08:02;;;;;;;1.35;0.90;;;27.70;46.70;;;;;;5067840;28;20580;-46
2022/01/10 00:10:33;;;;;;;1.30;1.02;;;27.80;46.80;;;;;;5067350;28;20195;-49
2022/01/10 00:13:05;;;;;;;1.00;0.90;;;27.80;46.70;;;;;;5064815;28;20318;-41
2022/01/10 00:15:36;;;;;;;1.75;0.95;;;27.80;46.70;;;;;;5065220;28;20206;-50
2022/01/10 00:18:09;;;;;;;1.55;0.93;;;27.80;46.70;;;;;;5068874;28;20234;-44
2022/01/10 00:20:40;;;;;;;1.60;0.80;;;27.80;46.70;;;;;;5068295;28;20285;-40
2022/01/10 00:23:11;;;;;;;1.85;0.95;;;27.90;46.70;;;;;;5065775;28;20314;-51
2022/01/10 00:25:42;;;;;;;1.45;1.10;;;27.90;46.60;;;;;;5066379;28;20297;-46
2022/01/10 00:28:14;;;;;;;2.42;0.90;;;27.90;46.60;;;;;;5065844;28;20191;-48
2022/01/10 00:30:44;;;;;;;1.98;0.80;;;27.90;46.50;;;;;;5067089;28;20997;-43
2022/01/10 00:33:15;;;;;;;1.33;0.90;;;28.00;46.50;;;;;;5068705;28;20726;-49
2022/01/10 00:35:47;;;;;;;1.17;0.90;;;28.00;46.50;;;;;;5059213;28;20638;-40
2022/01/10 00:38:17;;;;;;;1.00;0.60;;;28.00;46.50;;;;;;5055930;28;20206;-42
2022/01/10 00:40:49;;;;;;;2.35;0.95;;;28.10;46.40;;;;;;5065783;28;20195;-49
2022/01/10 00:43:31;;;;;;;2.53;1.13;;;28.00;46.10;;;;;;5066007;28;20245;-47
2022/01/10 00:46:02;;;;;;;1.10;0.77;;;28.10;46.00;;;;;;5068710;28;20612;-45
2022/01/10 00:48:33;;;;;;;0.90;0.70;;;28.10;45.90;;;;;;5063220;28;20264;-44
2022/01/10 00:51:03;;;;;;;2.20;1.00;;;28.10;45.80;;;;;;5066757;28;20234;-40
2022/01/10 00:53:34;;;;;;;1.67;0.90;;;28.10;45.80;;;;;;5063829;28;20341;-51
2022/01/10 00:56:08;;;;;;;1.70;0.80;;;28.10;45.70;;;;;;5066613;28;20202;-41
2022/01/10 00:58:40;;;;;;;1.20;0.93;;;28.20;45.80;;;;;;5067140;28;20203;-48
2022/01/10 01:01:11;;;;;;;0.85;0.70;;;28.20;45.80;;;;;;5065676;28;20600;-45
2022/01/10 01:03:42;;;;;;;1.20;0.90;;;28.20;45.80;;;;;;5065996;28;20272;-45
2022/01/10 01:06:14;;;;;;;1.23;0.80;;;28.30;45.80;;;;;;5066888;28;20291;-44
2022/01/10 01:08:45;;;;;;;0.98;0.90;;;28.20;45.80;;;;;;5066466;28;20557;-45
2022/01/10 01:16:44;;;;;;;2.35;0.70;;;28.30;45.70;;;;;;5085494;28;20210;-46
2022/01/10 01:24:45;;;;;;;1.52;1.00;;;28.40;45.80;;;;;;5100554;28;20242;-49
2022/01/10 01:27:19;;;;;;;1.17;0.90;;;28.40;45.70;;;;;;5101167;28;20206;-41
2022/01/10 01:29:50;;;;;;;2.17;1.10;;;28.50;45.70;;;;;;5106086;28;20610;-44
2022/01/10 01:32:22;;;;;;;1.10;0.90;;;28.50;45.40;;;;;;5102365;28;20209;-42
2022/01/10 01:34:56;;;;;;;1.02;0.95;;;28.50;45.30;;;;;;5099496;28;20251;-49
2022/01/10 01:37:27;;;;;;;2.95;0.90;;;28.50;45.30;;;;;;5098104;28;20235;-46
2022/01/10 01:39:58;;;;;;;1.67;0.90;;;28.50;45.20;;;;;;5104587;28;20198;-46
2022/01/10 01:42:36;;;;;;;3.22;1.08;;;28.60;45.10;;;;;;5104639;28;20248;-41
2022/01/10 01:45:09;;;;;;;1.30;1.02;;;28.60;45.00;;;;;;5101249;28;20224;-47
2022/01/10 01:47:44;;;;;;;1.23;0.77;;;28.60;45.00;;;;;;5099871;28;20250;-49
2022/01/10 01:50:15;;;;;;;1.17;0.73;;;28.60;45.10;;;;;;5098159;28;20204;-47
2022/01/10 01:52:48;;;;;;;1.00;0.90;;;28.60;45.10;;;;;;5102273;28;21468;-45
2022/01/10 01:55:19;;;;;;;1.17;0.90;;;28.60;45.10;;;;;;5104973;28;20201;-50
2022/01/10 01:57:49;;;;;;;1.23;0.70;;;28.70;45.20;;;;;;5099546;28;20288;-50
2022/01/10 02:00:22;;;;;;;0.98;0.90;;;28.70;45.30;;;;;;5100055;28;20223;-46
2022/01/10 02:02:56;;;;;;;1.17;0.98;;;28.70;45.30;;;;;;5103208;28;20248;-46
2022/01/10 02:05:27;;;;;;;0.80;0.70;;;28.80;45.30;;;;;;5106058;28;20225;-43
2022/01/10 02:07:57;;;;;;;1.25;0.70;;;28.80;45.20;;;;;;5103466;28;20250;-45
2022/01/10 02:10:29;;;;;;;1.25;0.95;;;28.80;44.90;;;;;;5098432;28;20201;-44
2022/01/10 02:13:00;;;;;;;1.30;0.75;;;28.80;44.80;;;;;;5098438;28;20259;-50
2022/01/10 02:15:41;;;;;;;0.95;0.70;;;28.90;44.80;;;;;;5104704;28;20201;-51
2022/01/10 02:18:15;;;;;;;0.90;0.70;;;28.90;44.60;;;;;;5105487;28;20208;-47
2022/01/10 02:20:48;;;;;;;1.15;0.70;;;28.90;44.40;;;;;;5100717;28;20190;-49
2022/01/10 02:23:20;;;;;;;2.70;1.00;;;28.90;44.30;;;;;;5096157;28;20275;-46
2022/01/10 02:25:51;;;;;;;1.83;0.85;;;28.90;44.00;;;;;;5098167;28;20293;-49
2022/01/10 02:28:22;;;;;;;1.88;0.80;;;28.90;44.00;;;;;;5104882;28;20198;-41
2022/01/10 02:30:56;;;;;;;0.95;0.82;;;28.90;43.90;;;;;;5105049;28;20248;-41
2022/01/10 02:33:27;;;;;;;1.17;0.77;;;28.90;44.00;;;;;;5101586;28;20228;-40
2022/01/10 02:36:09;;;;;;;2.03;0.90;;;29.00;43.90;;;;;;5103237;28;20712;-49
2022/01/10 02:38:47;;;;;;;2.88;1.00;;;28.90;43.70;;;;;;5100447;28;20276;-50
2022/01/10 02:41:27;;;;;;;2.83;1.10;;;29.00;43.50;;;;;;5090836;28;20212;-43
2022/01/10 02:44:04;;;;;;;2.25;0.95;;;29.00;43.80;;;;;;5075341;28;20644;-39
2022/01/10 02:46:37;;;;;;;1.67;1.00;;;29.00;43.90;;;;;;5077585;28;20322;-47
2022/01/10 02:49:17;;;;;;;2.25;0.98;;;29.00;43.80;;;;;;5079266;28;20788;-41
2022/01/10 02:51:50;;;;;;;1.83;1.00;;;29.00;43.80;;;;;;5082305;28;20254;-45
2022/01/10 02:54:20;;;;;;;1.50;1.00;;;29.00;43.70;;;;;;5084340;28;20210;-45
2022/01/10 02:56:51;;;;;;;1.30;0.77;;;29.10;43.70;;;;;;5091698;28;20257;-43
2022/01/10 02:59:23;;;;;;;1.77;1.00;;;29.10;43.70;;;;;;5090366;28;20697;-49
2022/01/10 03:01:54;;;;;;;1.83;0.90;;;29.10;43.70;;;;;;5086903;28;20279;-43
2022/01/10 03:04:25;;;;;;;1.45;0.95;;;29.20;43.70;;;;;;5090892;28;20205;-51
2022/01/10 03:06:58;;;;;;;1.60;0.90;;;29.20;43.50;;;;;;5091853;28;20720;-46
2022/01/10 03:09:29;;;;;;;2.05;1.08;;;29.20;43.50;;;;;;5090290;28;20190;-55
2022/01/10 03:11:59;;;;;;;1.10;0.90;;;29.20;43.50;;;;;;5081342;28;20256;-44
2022/01/10 03:14:30;;;;;;;1.38;0.93;;;29.30;43.70;;;;;;5083120;28;20606;-49
2022/01/10 03:17:01;;;;;;;2.22;0.98;;;29.30;43.70;;;;;;5091266;28;20237;-48
2022/01/10 03:19:31;;;;;;;1.98;1.05;;;29.40;43.70;;;;;;5091637;28;20202;-43
2022/01/10 03:22:04;;;;;;;1.63;1.05;;;29.40;43.60;;;;;;5089602;28;20240;-42
2022/01/10 03:24:35;;;;;;;1.73;1.00;;;29.40;43.50;;;;;;5090089;28;20209;-49
2022/01/10 03:27:05;;;;;;;0.98;0.77;;;29.40;43.60;;;;;;5089738;28;20244;-41
2022/01/10 03:29:36;;;;;;;1.58;0.82;;;29.40;43.60;;;;;;5091840;28;20280;-46
2022/01/10 03:32:07;;;;;;;2.17;1.13;;;29.50;43.70;;;;;;5076013;28;20203;-46
2022/01/10 03:34:38;;;;;;;0.90;0.70;;;29.50;43.70;;;;;;5087598;28;20284;-45
2022/01/10 03:37:11;;;;;;;1.42;0.80;;;29.50;43.70;;;;;;5090130;28;20778;-43
2022/01/10 03:39:42;;;;;;;1.00;0.80;;;29.50;43.70;;;;;;5093200;28;20280;-47
2022/01/10 03:42:13;;;;;;;1.35;0.98;;;29.60;43.70;;;;;;5073700;28;20213;-43
2022/01/10 03:44:44;;;;;;;1.98;1.20;;;29.60;43.60;;;;;;5089627;28;20200;-49
2022/01/10 03:47:16;;;;;;;2.15;0.75;;;29.60;43.50;;;;;;5088801;28;20324;-51
2022/01/10 03:49:47;;;;;;;1.15;0.88;;;29.60;43.50;;;;;;5080344;28;20195;-45
2022/01/10 03:52:20;;;;;;;1.70;0.90;;;29.70;43.60;;;;;;5084188;28;20256;-50
2022/01/10 03:54:50;;;;;;;1.67;0.85;;;29.70;43.50;;;;;;5090077;28;20194;-51
2022/01/10 03:57:20;;;;;;;2.13;1.17;;;29.80;43.60;;;;;;5097801;28;20233;-48
2022/01/10 03:59:51;;;;;;;1.45;1.00;;;29.80;43.60;;;;;;5093269;28;20233;-48
2022/01/10 04:02:22;;;;;;;1.73;1.00;;;29.80;43.60;;;;;;5076989;28;20297;-44
2022/01/10 04:04:53;;;;;;;2.95;1.10;;;29.80;43.60;;;;;;5090212;28;20638;-39
2022/01/10 04:07:25;;;;;;;1.70;1.08;;;29.80;43.50;;;;;;5089042;28;20257;-48
2022/01/10 04:09:55;;;;;;;2.95;1.00;;;29.90;43.50;;;;;;5090877;28;20250;-53
2022/01/10 04:12:26;;;;;;;1.75;0.90;;;29.90;43.50;;;;;;5088202;28;20214;-54
2022/01/10 04:14:57;;;;;;;1.30;0.80;;;30.00;43.50;;;;;;5091966;28;20206;-49
2022/01/10 04:17:27;;;;;;;1.17;0.77;;;30.00;43.50;;;;;;5089129;28;20244;-48
2022/01/10 04:19:57;;;;;;;1.13;0.80;;;30.00;43.40;;;;;;5087462;28;20721;-52
2022/01/10 04:22:30;;;;;;;2.05;1.00;;;30.00;43.50;;;;;;5087927;28;20321;-51
2022/01/10 04:25:01;;;;;;;1.20;0.70;;;30.10;43.40;;;;;;5089863;28;20705;-52
2022/01/10 04:27:32;;;;;;;1.98;0.88;;;30.10;43.50;;;;;;5072978;28;20581;-50
2022/01/10 04:30:02;;;;;;;2.83;1.20;;;30.10;43.30;;;;;;5084714;28;20195;-49
2022/01/10 04:32:33;;;;;;;2.25;0.90;;;30.10;43.20;;;;;;5092460;28;20252;-47
2022/01/10 04:35:04;;;;;;;2.47;1.17;;;30.10;43.20;;;;;;5098051;28;20869;-46
2022/01/10 04:37:37;;;;;;;1.48;0.93;;;30.10;43.10;;;;;;5076402;28;20663;-48
2022/01/10 04:40:09;;;;;;;2.45;1.00;;;30.10;43.10;;;;;;5089352;28;20780;-48
2022/01/10 04:42:40;;;;;;;1.80;1.08;;;30.20;43.10;;;;;;5085844;28;20302;-48
2022/01/10 04:45:11;;;;;;;2.05;0.82;;;30.20;43.10;;;;;;5077419;28;20201;-48
2022/01/10 04:47:42;;;;;;;1.42;1.00;;;30.20;43.10;;;;;;5075414;28;20301;-43
2022/01/10 04:52:59;;;;;;;2.22;0.95;;;30.20;43.10;;;;;;5085862;28;20261;-47
2022/01/10 04:55:29;;;;;;;1.33;1.10;;;30.30;43.20;;;;;;5087359;28;20284;-44
2022/01/10 04:58:00;;;;;;;2.42;0.80;;;30.30;43.20;;;;;;5084390;28;20286;-54
2022/01/10 05:00:30;;;;;;;1.88;0.90;;;30.30;43.20;;;;;;5072336;28;20286;-43
2022/01/10 05:03:01;;;;;;;2.30;1.13;;;30.30;43.30;;;;;;5072317;28;20305;-47
2022/01/10 05:05:31;;;;;;;1.77;0.90;;;30.30;43.30;;;;;;5099183;28;20293;-47
2022/01/10 05:08:04;;;;;;;1.38;0.95;;;30.30;43.40;;;;;;5092702;28;20280;-52
2022/01/10 05:10:34;;;;;;;1.83;0.82;;;30.30;43.30;;;;;;5085574;28;20281;-44
2022/01/10 05:13:05;;;;;;;1.00;0.80;;;30.30;43.30;;;;;;5089841;28;20287;-43
2022/01/10 05:15:35;;;;;;;2.72;1.08;;;30.30;43.30;;;;;;5086992;28;20233;-47
2022/01/10 05:18:06;;;;;;;2.50;1.10;;;30.30;43.30;;;;;;5087330;28;20285;-41
2022/01/10 05:20:36;;;;;;;2.75;1.00;;;30.30;43.30;;;;;;5087981;28;20285;-49
2022/01/10 05:23:09;;;;;;;1.33;0.90;;;30.40;43.40;;;;;;5088525;28;20249;-41
2022/01/10 05:25:40;;;;;;;1.52;1.17;;;30.40;43.40;;;;;;5086843;28;20282;-48
2022/01/10 05:28:12;;;;;;;2.15;1.27;;;30.40;43.40;;;;;;5087682;28;20225;-45
2022/01/10 05:30:43;;;;;;;2.05;1.27;;;30.40;43.50;;;;;;5085732;28;20671;-46
2022/01/10 05:33:13;;;;;;;2.10;1.30;;;30.40;43.50;;;;;;5087364;28;20260;-48
2022/01/10 05:35:46;;;;;;;3.88;1.42;;;30.40;43.50;;;;;;5080821;28;20277;-49
2022/01/10 05:38:18;;;;;;;3.00;1.15;;;30.40;43.70;;;;;;5074986;28;20199;-49
2022/01/10 05:40:48;;;;;;;2.30;1.20;;;30.40;43.70;;;;;;5084918;28;20286;-45
2022/01/10 05:43:19;;;;;;;2.00;1.17;;;30.40;43.80;;;;;;5087328;28;20628;-46
2022/01/10 05:45:50;;;;;;;1.83;1.30;;;30.40;43.80;;;;;;5087318;28;20289;-50
2022/01/10 05:48:26;;;;;;;2.65;1.23;;;30.40;43.90;;;;;;5072966;28;20225;-44
2022/01/10 05:50:57;;;;;;;2.17;1.40;;;30.40;44.00;;;;;;5086743;28;20208;-51
2022/01/10 05:53:29;;;;;;;2.58;1.38;;;30.40;44.00;;;;;;5092178;28;20296;-45
2022/01/10 05:56:00;;;;;;;4.97;1.55;;;30.50;44.00;;;;;;5088575;28;20638;-47
2022/01/10 05:58:30;;;;;;;3.35;1.60;;;30.50;44.10;;;;;;5088106;28;20637;-45
2022/01/10 06:01:01;;;;;;;3.03;1.52;;;30.50;44.30;;;;;;5104618;28;20250;-45
2022/01/10 06:03:31;;;;;;;3.35;1.55;;;30.40;44.20;;;;;;5089969;28;20322;-48
2022/01/10 06:06:02;;;;;;;3.80;1.42;;;30.40;44.20;;;;;;5087536;28;20698;-47
2022/01/10 06:08:34;;;;;;;3.05;1.48;;;30.40;44.30;;;;;;5078666;28;20233;-52
2022/01/10 06:11:05;;;;;;;2.88;1.52;;;30.40;44.40;;;;;;5092109;28;20292;-46
2022/01/10 06:13:35;;;;;;;3.33;1.50;;;30.40;44.40;;;;;;5091448;28;20297;-49
2022/01/10 06:16:06;;;;;;;4.65;1.77;;;30.40;44.50;;;;;;5070057;22;20306;-37
2022/01/10 06:18:36;;;;;;;2.92;1.50;;;30.40;44.60;;;;;;5045476;28;20279;-46
2022/01/10 06:21:07;;;;;;;3.63;1.55;;;30.40;44.60;;;;;;5050601;28;20275;-39
2022/01/10 06:23:39;;;;;;;3.55;1.63;;;30.30;44.60;;;;;;5063479;28;20305;-37
2022/01/10 06:26:10;;;;;;;1.70;1.30;;;30.30;44.60;;;;;;5049754;28;20743;-37
2022/01/10 06:28:40;;;;;;;3.50;1.80;;;30.40;44.80;;;;;;5045166;28;20279;-37
2022/01/10 06:31:10;;;;;;;4.68;2.05;;;30.30;44.80;;;;;;5039922;28;20299;-41
2022/01/10 06:33:41;;;;;;;3.40;1.92;;;30.30;44.80;;;;;;5043231;28;20306;-43
2022/01/10 06:36:11;;;;;;;3.63;1.60;;;30.30;44.90;;;;;;5049718;28;20291;-37
2022/01/10 06:38:44;;;;;;;2.60;1.70;;;30.30;45.00;;;;;;5047675;28;20203;-40
2022/01/10 06:41:14;;;;;;;4.75;1.98;;;30.30;45.00;;;;;;5047291;28;20203;-46
2022/01/10 06:43:45;;;;;;;3.53;1.67;;;30.30;45.00;;;;;;5042559;28;20302;-42
2022/01/10 06:46:15;;;;;;;3.13;1.73;;;30.30;45.10;;;;;;5037146;28;20287;-37
2022/01/10 06:48:46;;;;;;;2.72;1.80;;;30.30;45.10;;;;;;5047489;28;20295;-45
2022/01/10 06:51:17;;;;;;;5.05;2.10;;;30.30;45.20;;;;;;5045883;28;20243;-37
2022/01/10 06:53:49;;;;;;;3.90;2.08;;;30.40;45.30;;;;;;5038146;28;20303;-40
2022/01/10 06:56:20;;;;;;;2.88;1.63;;;30.30;45.20;;;;;;5050231;28;20636;-47
2022/01/10 06:58:50;;;;;;;2.92;1.80;;;30.30;45.20;;;;;;5049371;28;20298;-48
2022/01/10 07:01:21;;;;;;;4.07;2.00;;;30.30;45.30;;;;;;5048690;28;20283;-41
2022/01/10 07:03:52;;;;;;;4.45;2.17;;;30.30;45.30;;;;;;5048611;28;20686;-38
2022/01/10 07:06:23;;;;;;;3.10;1.67;;;30.30;45.20;;;;;;5035834;28;20704;-41
2022/01/10 07:08:55;;;;;;;3.13;1.65;;;30.30;45.30;;;;;;5050269;28;20203;-46
2022/01/10 07:11:26;;;;;;;8.60;2.80;;;30.30;45.30;;;;;;5039128;28;20610;-42
2022/01/10 07:13:56;;;;;;;6.47;2.92;;;30.20;47.10;;;;;;5042114;28;20315;-42
2022/01/10 07:16:27;;;;;;;10.40;3.00;;;30.00;48.20;;;;;;5051208;28;20294;-42
2022/01/10 07:18:57;;;;;;;9.23;3.20;;;29.50;49.30;;;;;;5033733;28;20307;-41
2022/01/10 07:21:28;;;;;;;7.93;3.33;;;29.00;50.00;;;;;;5054662;28;20310;-37
2022/01/10 07:24:00;;;;;;;8.18;2.90;;;28.80;50.00;;;;;;5047810;28;20324;-45
2022/01/10 07:26:32;;;;;;;6.95;3.33;;;28.80;49.80;;;;;;5046802;28;20291;-39
2022/01/10 07:29:02;;;;;;;6.50;2.67;;;28.80;49.40;;;;;;5038136;28;20187;-37
2022/01/10 07:31:33;;;;;;;5.10;2.53;;;28.80;49.00;;;;;;5038496;28;20313;-36
2022/01/10 07:34:03;;;;;;;6.07;2.92;;;28.80;48.70;;;;;;5038911;28;20469;-36
2022/01/10 07:36:35;;;;;;;5.88;2.53;;;28.80;48.50;;;;;;5040539;28;20282;-36
2022/01/10 07:39:08;;;;;;;4.20;2.28;;;28.70;48.40;;;;;;5037456;28;20702;-37
2022/01/10 07:41:38;;;;;;;4.07;2.30;;;28.80;48.40;;;;;;5049138;28;20286;-41
2022/01/10 07:44:09;;;;;;;4.60;2.38;;;28.80;48.40;;;;;;5045632;28;20299;-36
2022/01/10 07:46:40;;;;;;;4.00;2.17;;;28.70;48.40;;;;;;5046361;28;20291;-37
2022/01/10 07:49:10;;;;;;;6.40;2.47;;;28.70;48.40;;;;;;5046840;28;20278;-37
2022/01/10 07:51:41;;;;;;;4.35;2.35;;;28.70;48.40;;;;;;5050010;28;20639;-39
2022/01/10 07:54:13;;;;;;;6.70;2.58;;;28.60;48.30;;;;;;5034386;28;20295;-37
2022/01/10 07:56:43;;;;;;;4.07;2.42;;;28.60;48.30;;;;;;5038214;28;20763;-36
2022/01/10 07:59:14;;;;;;;4.25;2.35;;;28.60;48.30;;;;;;5041951;28;20194;-37
2022/01/10 08:01:45;;;;;;;5.72;2.67;;;28.60;48.40;;;;;;5048998;28;20227;-37
2022/01/10 08:04:16;;;;;;;5.72;2.80;;;28.60;48.40;;;;;;5049443;28;20258;-37
2022/01/10 08:06:47;;;;;;;5.15;2.35;;;28.60;48.40;;;;;;5060649;28;20282;-39
2022/01/10 08:09:19;;;;;;;5.55;2.40;;;28.50;48.40;;;;;;5050937;28;20279;-36
2022/01/10 08:11:49;;;;;;;5.40;2.45;;;28.50;48.40;;;;;;5047319;28;20302;-36
2022/01/10 08:14:20;;;;;;;6.47;2.70;;;28.50;48.40;;;;;;5048989;28;20302;-37
2022/01/10 08:16:50;;;;;;;5.25;2.33;;;28.40;48.40;;;;;;5048520;28;20287;-36
2022/01/10 08:19:21;;;;;;;4.95;2.20;;;28.50;48.50;;;;;;5047141;28;20202;-37
2022/01/10 08:21:52;;;;;;;4.40;2.30;;;28.40;48.40;;;;;;5045795;28;20286;-37
2022/01/10 08:24:24;;;;;;;3.92;2.30;;;28.40;48.50;;;;;;5048135;28;20684;-37
2022/01/10 08:26:55;;;;;;;5.50;2.40;;;28.40;48.50;;;;;;5048690;28;20310;-36
2022/01/10 08:29:26;;;;;;;5.80;2.50;;;28.40;48.60;;;;;;5047916;28;20227;-36
2022/01/10 08:31:57;;;;;;;5.85;2.47;;;28.30;48.50;;;;;;5046838;28;20290;-37
2022/01/10 08:34:28;;;;;;;6.03;2.42;;;28.30;48.50;;;;;;5045929;28;20675;-37
2022/01/10 08:36:58;;;;;;;5.60;2.42;;;28.30;48.60;;;;;;5047769;28;20624;-37
2022/01/10 08:39:31;;;;;;;3.25;2.03;;;28.30;48.60;;;;;;5044680;28;20286;-37
2022/01/10 08:42:01;;;;;;;4.40;2.25;;;28.30;48.70;;;;;;5044709;28;20203;-37
2022/01/10 08:44:32;;;;;;;5.07;2.45;;;28.30;48.70;;;;;;5048908;28;20325;-37
2022/01/10 08:47:03;;;;;;;5.30;2.40;;;28.20;48.70;;;;;;5059466;28;20223;-37
2022/01/10 08:49:33;;;;;;;4.50;2.30;;;28.20;48.70;;;;;;5066980;28;20278;-47
2022/01/10 08:52:04;;;;;;;6.43;2.22;;;28.20;48.80;;;;;;5058382;28;20625;-38
2022/01/10 08:54:37;;;;;;;5.95;2.35;;;28.20;48.80;;;;;;5061913;28;20319;-50
2022/01/10 08:57:08;;;;;;;6.10;2.53;;;28.20;48.90;;;;;;5064123;28;20293;-37
2022/01/10 08:59:38;;;;;;;4.68;2.35;;;28.10;49.10;;;;;;5064216;28;20730;-38
2022/01/10 09:02:09;;;;;;;4.78;2.60;;;28.10;49.20;;;;;;5064656;28;20283;-37
2022/01/10 09:04:40;;;;;;;7.40;2.75;;;28.10;49.20;;;;;;5062924;28;20577;-38
2022/01/10 09:07:11;;;;;;;5.00;2.25;;;28.10;49.20;;;;;;5061586;28;21673;-38
2022/01/10 09:09:44;;;;;;;6.35;2.58;;;28.00;49.10;;;;;;5062636;28;20231;-39
2022/01/10 09:12:14;;;;;;;4.70;2.38;;;28.00;49.10;;;;;;5064454;28;20217;-38
2022/01/10 09:14:45;;;;;;;5.53;2.50;;;28.00;49.10;;;;;;5063238;28;20531;-41
2022/01/10 09:17:15;;;;;;;5.03;2.40;;;28.00;49.00;;;;;;5061740;28;20286;-38
2022/01/10 09:19:46;;;;;;;4.90;2.10;;;28.00;49.00;;;;;;5059524;28;20282;-38
2022/01/10 09:22:16;;;;;;;6.00;2.50;;;28.00;49.00;;;;;;5062700;28;20742;-38
2022/01/10 09:24:49;;;;;;;4.55;2.33;;;28.00;48.90;;;;;;5064050;28;20277;-37
2022/01/10 09:27:19;;;;;;;5.05;2.38;;;28.00;48.90;;;;;;5060967;28;20317;-38
2022/01/10 09:29:49;;;;;;;4.30;2.10;;;28.00;48.90;;;;;;5061844;28;20305;-37
2022/01/10 09:32:20;;;;;;;3.47;2.10;;;28.00;48.90;;;;;;5063070;28;20306;-37
2022/01/10 09:34:50;;;;;;;3.88;2.03;;;28.00;48.80;;;;;;5064442;28;20286;-37
2022/01/10 09:37:21;;;;;;;4.60;2.40;;;27.90;48.70;;;;;;5061928;28;20282;-40
2022/01/10 09:40:18;;;;;;;3.83;2.25;;;27.90;48.70;;;;;;5059773;28;20690;-41
2022/01/10 09:42:49;;;;;;;3.45;2.05;;;27.90;48.70;;;;;;5060465;28;20320;-38
2022/01/10 09:45:21;;;;;;;3.13;2.00;;;27.90;48.70;;;;;;5059811;28;20266;-40
2022/01/10 09:47:51;;;;;;;4.18;2.30;;;27.80;48.60;;;;;;5064512;28;20240;-48
2022/01/10 09:50:22;;;;;;;4.72;2.50;;;27.80;48.60;;;;;;5061135;28;20630;-38
2022/01/10 09:52:54;;;;;;;4.47;2.05;;;27.80;48.60;;;;;;5060119;28;20293;-40
2022/01/10 09:55:31;;;;;;;4.45;2.10;;;27.80;48.70;;;;;;5060593;28;20274;-41
2022/01/10 09:58:03;;;;;;;3.20;1.98;;;27.70;48.60;;;;;;5062735;28;20627;-49
2022/01/10 10:00:34;;;;;;;2.78;2.10;;;27.70;48.60;;;;;;5065546;28;20199;-44
2022/01/10 10:03:04;;;;;;;3.20;2.08;;;27.70;48.60;;;;;;5060396;28;20305;-40
2022/01/10 10:05:35;;;;;;;3.75;2.10;;;27.70;48.60;;;;;;5061210;28;20302;-38
2022/01/10 10:08:06;;;;;;;3.50;2.10;;;27.70;48.60;;;;;;5062674;28;20229;-37
2022/01/10 10:10:38;;;;;;;3.75;2.17;;;27.60;48.60;;;;;;5063237;28;20285;-38
2022/01/10 10:13:09;;;;;;;2.78;1.77;;;27.60;48.60;;;;;;5064332;28;20322;-42
2022/01/10 10:15:40;;;;;;;3.75;1.92;;;27.60;48.70;;;;;;5061447;28;20293;-37
2022/01/10 10:18:10;;;;;;;3.78;2.10;;;27.60;48.60;;;;;;5060648;28;20209;-37
2022/01/10 10:20:43;;;;;;;3.03;2.05;;;27.60;48.60;;;;;;5062951;28;20295;-38
2022/01/10 10:23:16;;;;;;;3.20;1.77;;;27.60;48.60;;;;;;5065898;28;20214;-37
2022/01/10 10:25:53;;;;;;;3.97;2.17;;;27.50;48.50;;;;;;5060618;28;20203;-43
2022/01/10 10:28:24;;;;;;;2.50;1.90;;;27.50;48.50;;;;;;5060505;28;20229;-37
2022/01/10 10:31:00;;;;;;;3.42;2.03;;;27.50;48.50;;;;;;5062305;28;20287;-37
2022/01/10 10:33:30;;;;;;;2.47;1.80;;;27.50;48.60;;;;;;5061840;28;20306;-37
2022/01/10 10:36:03;;;;;;;4.18;2.20;;;27.40;48.40;;;;;;5063312;28;20293;-37
2022/01/10 10:38:34;;;;;;;3.13;2.03;;;27.40;48.50;;;;;;5061481;28;20195;-37
2022/01/10 10:41:08;;;;;;;2.50;1.90;;;27.40;48.60;;;;;;5059760;28;20274;-38
2022/01/10 10:43:40;;;;;;;3.63;1.98;;;27.40;48.60;;;;;;5059299;28;20302;-40
2022/01/10 10:46:14;;;;;;;3.70;2.15;;;27.40;48.60;;;;;;5064679;28;20290;-37
2022/01/10 10:48:47;;;;;;;3.40;2.13;;;27.30;48.60;;;;;;5063608;28;20224;-38
2022/01/10 10:51:18;;;;;;;3.40;1.95;;;27.30;48.50;;;;;;5061050;28;20957;-38
2022/01/10 10:53:49;;;;;;;2.45;1.85;;;27.30;48.60;;;;;;5064792;28;20225;-37
2022/01/10 10:56:22;;;;;;;3.38;2.00;;;27.30;48.60;;;;;;5066548;28;20291;-39
2022/01/10 10:58:53;;;;;;;2.58;1.83;;;27.30;48.60;;;;;;5070173;28;20845;-38
2022/01/10 11:01:23;;;;;;;4.53;1.73;;;27.20;48.50;;;;;;5065642;28;20274;-37
2022/01/10 11:03:54;;;;;;;3.25;2.10;;;27.20;48.50;;;;;;5061011;28;20246;-37
2022/01/10 11:06:26;;;;;;;3.05;1.80;;;27.20;48.60;;;;;;5060771;28;20281;-46
2022/01/10 11:08:57;;;;;;;2.78;2.10;;;27.20;48.60;;;;;;5067784;28;20219;-42
2022/01/10 11:11:30;;;;;;;3.20;2.05;;;27.20;48.50;;;;;;5067435;28;20263;-50
2022/01/10 11:14:01;;;;;;;3.95;2.10;;;27.20;48.60;;;;;;5061353;28;21027;-44
2022/01/10 11:16:32;;;;;;;2.38;2.00;;;27.20;48.70;;;;;;5063917;28;20297;-39
2022/01/10 11:19:02;;;;;;;3.42;1.90;;;27.10;48.60;;;;;;5062413;28;20738;-42
2022/01/10 11:21:32;;;;;;;2.92;2.00;;;27.10;48.60;;;;;;5067983;28;20286;-47
2022/01/10 11:24:03;;;;;;;2.88;1.90;;;27.10;48.70;;;;;;5065048;28;20302;-50
2022/01/10 11:26:45;;;;;;;2.53;1.80;;;27.10;48.60;;;;;;5062346;28;20282;-45
2022/01/10 11:29:18;;;;;;;2.72;1.88;;;27.00;48.70;;;;;;5061618;28;20223;-38
2022/01/10 11:31:48;;;;;;;3.80;2.08;;;27.00;48.70;;;;;;5064609;28;20669;-37
2022/01/10 11:34:22;;;;;;;4.00;2.40;;;27.00;48.70;;;;;;5066584;28;20223;-43
2022/01/10 11:36:53;;;;;;;2.92;2.00;;;27.00;48.80;;;;;;5065360;28;20274;-50
2022/01/10 11:39:24;;;;;;;3.92;1.90;;;27.00;48.70;;;;;;5063933;28;20750;-45
2022/01/10 11:41:58;;;;;;;2.85;2.13;;;26.90;48.70;;;;;;5062778;28;20286;-51
2022/01/10 11:44:28;;;;;;;2.70;1.92;;;26.90;49.20;;;;;;5066149;28;20278;-40
2022/01/10 11:47:02;;;;;;;2.67;2.00;;;26.90;48.60;;;;;;5064336;28;20230;-38
2022/01/10 11:49:32;;;;;;;2.92;2.15;;;26.90;48.70;;;;;;5051081;28;20265;-48
2022/01/10 11:52:05;;;;;;;2.75;1.98;;;26.90;48.60;;;;;;5043510;28;20278;-51
2022/01/10 11:54:41;;;;;;;3.15;2.00;;;26.90;48.60;;;;;;5040295;28;21586;-46
2022/01/10 11:57:15;;;;;;;2.90;1.88;;;26.90;48.70;;;;;;5044002;28;20226;-51
2022/01/10 11:59:52;;;;;;;2.45;1.80;;;26.90;48.60;;;;;;5039747;28;20199;-44
2022/01/10 12:02:24;;;;;;;3.63;2.03;;;26.90;48.60;;;;;;5040392;28;20211;-45
2022/01/10 12:04:57;;;;;;;2.65;2.10;;;26.90;48.70;;;;;;5043303;28;20203;-51
2022/01/10 12:07:28;;;;;;;2.65;1.88;;;26.80;48.70;;;;;;5045108;28;20196;-41
2022/01/10 12:09:59;;;;;;;3.33;2.20;;;26.80;48.70;;;;;;5044081;28;20227;-48
2022/01/10 12:12:32;;;;;;;3.75;2.03;;;26.80;48.80;;;;;;5043653;28;20208;-49
2022/01/10 12:15:02;;;;;;;3.05;2.13;;;26.80;48.80;;;;;;5040902;28;20656;-50
2022/01/10 12:17:35;;;;;;;2.45;1.80;;;26.80;48.80;;;;;;5041397;28;20636;-40
2022/01/10 12:20:08;;;;;;;3.15;2.03;;;26.70;48.80;;;;;;5040435;28;20206;-56
2022/01/10 12:22:38;;;;;;;4.18;2.40;;;26.70;48.80;;;;;;5040393;28;20299;-43
2022/01/10 12:25:10;;;;;;;3.72;2.00;;;26.70;48.80;;;;;;5038954;28;20196;-45
2022/01/10 12:27:43;;;;;;;2.65;1.95;;;26.60;48.80;;;;;;5042832;28;20279;-47
2022/01/10 12:30:14;;;;;;;2.67;1.90;;;26.60;48.70;;;;;;5038932;28;20216;-47
2022/01/10 12:32:45;;;;;;;2.95;1.85;;;26.60;48.70;;;;;;5043061;28;20690;-48
2022/01/10 12:35:16;;;;;;;2.40;1.83;;;26.60;48.70;;;;;;5041503;28;20306;-52
2022/01/10 12:37:46;;;;;;;2.55;1.95;;;26.60;48.70;;;;;;5040922;28;20302;-48
2022/01/10 12:40:17;;;;;;;2.13;1.70;;;26.60;48.70;;;;;;5040135;28;20295;-51
2022/01/10 12:42:53;;;;;;;2.63;1.70;;;26.50;48.70;;;;;;5045206;28;20411;-56
2022/01/10 12:45:23;;;;;;;2.38;1.98;;;26.50;48.70;;;;;;5048464;28;20562;-47
2022/01/10 12:47:54;;;;;;;2.75;1.90;;;26.50;48.70;;;;;;5046148;28;20203;-49
2022/01/10 12:50:25;;;;;;;3.38;1.83;;;26.50;48.70;;;;;;5047321;28;20286;-49
2022/01/10 12:52:57;;;;;;;2.42;1.80;;;26.50;48.70;;;;;;5045991;28;20212;-49
2022/01/10 12:55:27;;;;;;;2.95;1.98;;;26.50;48.80;;;;;;5033356;28;20205;-53
2022/01/10 12:58:00;;;;;;;1.95;1.58;;;26.50;48.80;;;;;;5047821;28;20594;-45
2022/01/10 13:00:31;;;;;;;2.05;1.58;;;26.40;48.80;;;;;;5038723;28;20637;-46
2022/01/10 13:03:03;;;;;;;2.03;1.52;;;26.40;48.80;;;;;;5037161;28;20238;-45
2022/01/10 13:05:34;;;;;;;2.25;1.85;;;26.40;48.90;;;;;;5047458;28;20290;-42
2022/01/10 13:08:05;;;;;;;2.33;2.05;;;26.40;48.90;;;;;;5064539;28;20237;-47
2022/01/10 13:10:38;;;;;;;2.35;1.73;;;26.40;48.90;;;;;;5046770;28;20227;-44
2022/01/10 13:13:14;;;;;;;2.58;1.90;;;26.40;48.90;;;;;;5040745;28;20219;-49
2022/01/10 13:15:45;;;;;;;3.10;1.83;;;26.30;48.90;;;;;;5034971;28;20203;-40
2022/01/10 13:18:17;;;;;;;2.00;1.80;;;26.30;48.90;;;;;;5048795;28;20278;-56
2022/01/10 13:20:55;;;;;;;2.67;1.88;;;26.30;48.90;;;;;;5047323;28;20227;-49
2022/01/10 13:23:33;;;;;;;2.28;1.70;;;26.30;48.90;;;;;;5034769;28;20246;-52